»·PEaware :: N4443X KBFI-KYKM

N4443X :: KBFI-KYKM

FLIGHT INFORMATION

Flight Status: Arrived
Operator: Privately registered:
United States
More flights under this callsign
Pilot: Doug H. (19585)
Aircraft: PIPER PA-28R-201 ARROW
(P28R)
More flights by this aircraft type
Origin: KBFI Boeing Field/King Co Intl
United States
Destination: KYKM Yakima Air Term/Mcallister
United States
More flights between these airports :: More routes between these airports
Route: +
File this flight plan on PilotEdge
Remarks:
Altitude:
(Current/Filed)
6,500ft
Speed:
(Current/Filed)
0kts
Departed: 11-Aug-19 05:29 PM
Arrived: 11-Aug-19 06:16 PM
Distance/Time
Traveled:
92nm/0:47
Distance/Time
To Go:
Arrived

Flight Plot

Page will automatically refresh every two minutes.

Flight plan parsing failed; only flown route is shown


Map Options




Map Legend


Flown Route
Filed Route
Departure Airport
Arrival Airport
Navaid (VOR, NDB)
Fix

Horizontal Profiles

Position Reports

Time Latitude Longitude Heading Altitude Ground
Speed
11-Aug-19 17:19 47.519488 -122.296080 359 21ft 0kts
11-Aug-19 17:20 47.519488 -122.296080 359 21ft 0kts
11-Aug-19 17:21 47.519488 -122.296080 359 21ft 0kts
11-Aug-19 17:22 47.523316 -122.298371 330 21ft 20kts
11-Aug-19 17:23 47.528252 -122.302547 330 21ft 20kts
11-Aug-19 17:24 47.533161 -122.306706 329 21ft 19kts
11-Aug-19 17:25 47.537798 -122.310629 330 21ft 18kts
11-Aug-19 17:26 47.539756 -122.312152 25 21ft 0kts
11-Aug-19 17:27 47.539867 -122.312018 51 21ft 6kts
11-Aug-19 17:28 47.527721 -122.299822 149 349ft 80kts
11-Aug-19 17:29 47.510717 -122.278209 130 1055ft 83kts
11-Aug-19 17:30 47.496156 -122.250386 135 1734ft 89kts
11-Aug-19 17:31 47.479371 -122.220452 133 2387ft 97kts
11-Aug-19 17:32 47.461345 -122.187818 134 2879ft 114kts
11-Aug-19 17:33 47.438702 -122.147707 133 2804ft 131kts
11-Aug-19 17:34 47.428469 -122.129059 126 2768ft 130kts
11-Aug-19 17:35 47.408165 -122.085603 130 2774ft 128kts
11-Aug-19 17:36 47.387942 -122.046277 132 3320ft 108kts
11-Aug-19 17:37 47.368440 -122.009392 132 3764ft 118kts
11-Aug-19 17:38 47.348402 -121.971450 133 4364ft 117kts
11-Aug-19 17:39 47.328278 -121.933472 133 4976ft 118kts
11-Aug-19 17:40 47.307701 -121.894679 133 5541ft 120kts
11-Aug-19 17:41 47.284898 -121.851961 132 5669ft 135kts
11-Aug-19 17:42 47.260673 -121.806536 132 5668ft 136kts
11-Aug-19 17:43 47.236974 -121.762157 132 5666ft 135kts
11-Aug-19 17:44 47.213565 -121.718419 132 5663ft 136kts
11-Aug-19 17:45 47.190126 -121.674708 132 5651ft 136kts
11-Aug-19 17:46 47.167213 -121.631968 133 5870ft 128kts
11-Aug-19 17:47 47.144915 -121.590461 133 6446ft 115kts
11-Aug-19 17:48 47.124856 -121.553135 134 7132ft 109kts
11-Aug-19 17:49 47.104575 -121.515717 133 7511ft 130kts
11-Aug-19 17:50 47.082474 -121.474624 133 7968ft 120kts
11-Aug-19 17:51 47.062067 -121.436734 134 8648ft 110kts
11-Aug-19 17:52 47.043633 -121.402628 134 9218ft 111kts
11-Aug-19 17:53 47.022105 -121.363205 132 9469ft 137kts
11-Aug-19 17:54 46.996947 -121.316959 132 9451ft 148kts
11-Aug-19 17:55 46.971258 -121.269781 131 9307ft 150kts
11-Aug-19 17:56 46.944909 -121.221489 130 8797ft 155kts
11-Aug-19 17:57 46.918234 -121.172631 130 8350ft 153kts
11-Aug-19 17:58 46.891634 -121.123973 130 7896ft 153kts
11-Aug-19 17:59 46.864611 -121.075619 132 7425ft 152kts
11-Aug-19 18:00 46.838051 -121.027948 131 6982ft 149kts
11-Aug-19 18:01 46.811421 -120.979629 130 6418ft 150kts
11-Aug-19 18:02 46.784939 -120.931685 130 5836ft 152kts
11-Aug-19 18:03 46.759999 -120.887766 129 5323ft 151kts
11-Aug-19 18:04 46.733638 -120.839679 128 4666ft 151kts
11-Aug-19 18:05 46.707528 -120.792587 130 4050ft 148kts
11-Aug-19 18:06 46.679837 -120.749687 151 3620ft 136kts
11-Aug-19 18:07 46.645868 -120.728733 163 3496ft 132kts
11-Aug-19 18:08 46.609781 -120.711079 162 3405ft 138kts
11-Aug-19 18:09 46.576399 -120.684145 124 3219ft 148kts
11-Aug-19 18:10 46.564462 -120.630293 95 2526ft 137kts
11-Aug-19 18:11 46.560047 -120.578840 102 2041ft 117kts
11-Aug-19 18:12 46.552566 -120.531441 101 1902ft 105kts
11-Aug-19 18:13 46.553796 -120.498496 3 1526ft 74kts
11-Aug-19 18:14 46.563579 -120.523806 294 1187ft 68kts
11-Aug-19 18:15 46.567627 -120.539877 291 1061ft 14kts
11-Aug-19 18:16 46.569975 -120.538235 265 1059ft 8kts

Navigation Log

Ident Type
Flight plan parsing failed, navigation log unavailable